sensor_id;sensor_type;location;lat;lon;timestamp;P1;durP1;ratioP1;P2;durP2;ratioP2
40967;SDS011;57377;45.130;6.038;2022-12-18T00:01:28;70.90;;;26.63;;
40967;SDS011;57377;45.130;6.038;2022-12-18T00:03:56;42.05;;;17.70;;
40967;SDS011;57377;45.130;6.038;2022-12-18T00:06:23;15.75;;;6.32;;
40967;SDS011;57377;45.130;6.038;2022-12-18T00:08:49;10.18;;;5.22;;
40967;SDS011;57377;45.130;6.038;2022-12-18T00:11:19;9.50;;;4.57;;
40967;SDS011;57377;45.130;6.038;2022-12-18T00:13:46;7.40;;;3.90;;
40967;SDS011;57377;45.130;6.038;2022-12-18T00:16:13;6.93;;;3.15;;
40967;SDS011;57377;45.130;6.038;2022-12-18T00:18:41;9.13;;;2.45;;
40967;SDS011;57377;45.130;6.038;2022-12-18T00:21:08;4.50;;;2.20;;
40967;SDS011;57377;45.130;6.038;2022-12-18T00:23:35;7.35;;;3.75;;
40967;SDS011;57377;45.130;6.038;2022-12-18T00:26:02;9.45;;;3.85;;
40967;SDS011;57377;45.130;6.038;2022-12-18T00:28:30;9.32;;;3.90;;
40967;SDS011;57377;45.130;6.038;2022-12-18T00:31:02;9.45;;;4.00;;
40967;SDS011;57377;45.130;6.038;2022-12-18T00:33:29;8.85;;;4.25;;
40967;SDS011;57377;45.130;6.038;2022-12-18T00:35:59;10.43;;;5.28;;
40967;SDS011;57377;45.130;6.038;2022-12-18T00:38:29;5.18;;;3.05;;
40967;SDS011;57377;45.130;6.038;2022-12-18T00:40:54;5.30;;;2.22;;
40967;SDS011;57377;45.130;6.038;2022-12-18T00:43:19;4.28;;;2.05;;
40967;SDS011;57377;45.130;6.038;2022-12-18T00:45:45;2.63;;;1.13;;
40967;SDS011;57377;45.130;6.038;2022-12-18T00:48:10;3.45;;;1.23;;
40967;SDS011;57377;45.130;6.038;2022-12-18T00:50:36;4.40;;;1.50;;
40967;SDS011;57377;45.130;6.038;2022-12-18T00:53:01;4.32;;;1.83;;
40967;SDS011;57377;45.130;6.038;2022-12-18T00:55:27;2.53;;;1.55;;
40967;SDS011;57377;45.130;6.038;2022-12-18T00:57:52;3.17;;;1.88;;
40967;SDS011;57377;45.130;6.038;2022-12-18T01:00:18;8.32;;;1.95;;
40967;SDS011;57377;45.130;6.038;2022-12-18T01:02:43;4.68;;;2.05;;
40967;SDS011;57377;45.130;6.038;2022-12-18T01:05:09;2.78;;;1.67;;
40967;SDS011;57377;45.130;6.038;2022-12-18T01:07:36;6.90;;;1.95;;
40967;SDS011;57377;45.130;6.038;2022-12-18T01:10:02;2.53;;;1.60;;
40967;SDS011;57377;45.130;6.038;2022-12-18T01:12:28;2.20;;;1.33;;
40967;SDS011;57377;45.130;6.038;2022-12-18T01:14:54;6.05;;;1.85;;
40967;SDS011;57377;45.130;6.038;2022-12-18T01:17:19;3.30;;;1.52;;
40967;SDS011;57377;45.130;6.038;2022-12-18T01:19:44;5.03;;;1.88;;
40967;SDS011;57377;45.130;6.038;2022-12-18T01:22:10;2.58;;;1.77;;
40967;SDS011;57377;45.130;6.038;2022-12-18T01:24:35;4.20;;;1.67;;
40967;SDS011;57377;45.130;6.038;2022-12-18T01:27:01;3.50;;;1.52;;
40967;SDS011;57377;45.130;6.038;2022-12-18T01:29:26;3.42;;;1.77;;
40967;SDS011;57377;45.130;6.038;2022-12-18T01:31:54;4.63;;;1.70;;
40967;SDS011;57377;45.130;6.038;2022-12-18T01:34:20;3.55;;;1.88;;
40967;SDS011;57377;45.130;6.038;2022-12-18T01:36:46;3.05;;;1.80;;
40967;SDS011;57377;45.130;6.038;2022-12-18T01:39:12;2.15;;;1.33;;
40967;SDS011;57377;45.130;6.038;2022-12-18T01:41:38;2.83;;;1.45;;
40967;SDS011;57377;45.130;6.038;2022-12-18T01:49:54;4.07;;;2.53;;
40967;SDS011;57377;45.130;6.038;2022-12-18T01:52:22;2.63;;;1.45;;
40967;SDS011;57377;45.130;6.038;2022-12-18T01:54:50;3.05;;;1.63;;
40967;SDS011;57377;45.130;6.038;2022-12-18T01:57:17;6.55;;;1.42;;
40967;SDS011;57377;45.130;6.038;2022-12-18T01:59:43;2.50;;;1.10;;
40967;SDS011;57377;45.130;6.038;2022-12-18T02:02:12;1.63;;;1.23;;
40967;SDS011;57377;45.130;6.038;2022-12-18T02:04:37;2.45;;;1.20;;
40967;SDS011;57377;45.130;6.038;2022-12-18T02:09:41;3.47;;;1.70;;
40967;SDS011;57377;45.130;6.038;2022-12-18T02:17:30;2.75;;;1.40;;
40967;SDS011;57377;45.130;6.038;2022-12-18T02:20:21;2.25;;;1.23;;
40967;SDS011;57377;45.130;6.038;2022-12-18T02:28:25;2.40;;;1.48;;
40967;SDS011;57377;45.130;6.038;2022-12-18T02:30:56;2.13;;;1.40;;
40967;SDS011;57377;45.130;6.038;2022-12-18T02:33:24;2.30;;;1.20;;
40967;SDS011;57377;45.130;6.038;2022-12-18T02:35:52;1.60;;;1.00;;
40967;SDS011;57377;45.130;6.038;2022-12-18T02:38:19;7.18;;;2.30;;
40967;SDS011;57377;45.130;6.038;2022-12-18T02:40:45;6.35;;;2.35;;
40967;SDS011;57377;45.130;6.038;2022-12-18T02:43:13;3.80;;;1.90;;
40967;SDS011;57377;45.130;6.038;2022-12-18T02:48:52;10.95;;;2.70;;
40967;SDS011;57377;45.130;6.038;2022-12-18T02:51:29;6.30;;;2.25;;
40967;SDS011;57377;45.130;6.038;2022-12-18T02:54:06;4.03;;;1.90;;
40967;SDS011;57377;45.130;6.038;2022-12-18T02:56:39;5.57;;;2.42;;
40967;SDS011;57377;45.130;6.038;2022-12-18T02:59:17;4.50;;;1.60;;
40967;SDS011;57377;45.130;6.038;2022-12-18T03:04:49;2.60;;;1.48;;
40967;SDS011;57377;45.130;6.038;2022-12-18T03:07:23;3.50;;;1.60;;
40967;SDS011;57377;45.130;6.038;2022-12-18T03:09:58;4.25;;;1.50;;
40967;SDS011;57377;45.130;6.038;2022-12-18T03:17:35;52.50;;;24.83;;
40967;SDS011;57377;45.130;6.038;2022-12-18T03:20:07;13.18;;;6.43;;
40967;SDS011;57377;45.130;6.038;2022-12-18T03:22:37;3.80;;;1.95;;
40967;SDS011;57377;45.130;6.038;2022-12-18T03:25:04;2.70;;;1.60;;
40967;SDS011;57377;45.130;6.038;2022-12-18T03:27:32;2.70;;;1.35;;
40967;SDS011;57377;45.130;6.038;2022-12-18T03:30:02;2.53;;;1.40;;
40967;SDS011;57377;45.130;6.038;2022-12-18T03:32:44;2.78;;;1.50;;
40967;SDS011;57377;45.130;6.038;2022-12-18T03:35:10;1.98;;;1.50;;
40967;SDS011;57377;45.130;6.038;2022-12-18T03:37:37;2.13;;;1.25;;
40967;SDS011;57377;45.130;6.038;2022-12-18T03:40:03;1.95;;;1.33;;
40967;SDS011;57377;45.130;6.038;2022-12-18T03:42:50;8.07;;;3.60;;
40967;SDS011;57377;45.130;6.038;2022-12-18T03:45:23;23.23;;;10.98;;
40967;SDS011;57377;45.130;6.038;2022-12-18T03:48:00;78.93;;;31.33;;
40967;SDS011;57377;45.130;6.038;2022-12-18T03:53:08;60.45;;;23.10;;
40967;SDS011;57377;45.130;6.038;2022-12-18T03:55:50;62.47;;;26.52;;
40967;SDS011;57377;45.130;6.038;2022-12-18T03:58:17;32.63;;;12.55;;
40967;SDS011;57377;45.130;6.038;2022-12-18T04:00:46;17.48;;;7.40;;
40967;SDS011;57377;45.130;6.038;2022-12-18T04:03:14;5.55;;;2.97;;
40967;SDS011;57377;45.130;6.038;2022-12-18T04:05:43;5.05;;;2.85;;
40967;SDS011;57377;45.130;6.038;2022-12-18T04:08:09;3.45;;;1.90;;
40967;SDS011;57377;45.130;6.038;2022-12-18T04:10:35;3.55;;;1.67;;
40967;SDS011;57377;45.130;6.038;2022-12-18T04:13:01;3.17;;;1.45;;
40967;SDS011;57377;45.130;6.038;2022-12-18T04:15:26;3.65;;;1.75;;
40967;SDS011;57377;45.130;6.038;2022-12-18T04:17:52;2.80;;;1.83;;
40967;SDS011;57377;45.130;6.038;2022-12-18T04:20:17;7.15;;;2.63;;
40967;SDS011;57377;45.130;6.038;2022-12-18T04:22:43;38.40;;;12.43;;
40967;SDS011;57377;45.130;6.038;2022-12-18T04:25:08;36.00;;;12.45;;
40967;SDS011;57377;45.130;6.038;2022-12-18T04:27:34;14.35;;;6.25;;
40967;SDS011;57377;45.130;6.038;2022-12-18T04:29:59;10.20;;;3.10;;
40967;SDS011;57377;45.130;6.038;2022-12-18T04:32:25;5.45;;;1.75;;
40967;SDS011;57377;45.130;6.038;2022-12-18T04:34:50;6.97;;;2.55;;
40967;SDS011;57377;45.130;6.038;2022-12-18T04:37:15;8.45;;;2.30;;
40967;SDS011;57377;45.130;6.038;2022-12-18T04:39:41;10.43;;;3.25;;
40967;SDS011;57377;45.130;6.038;2022-12-18T04:42:06;18.02;;;6.30;;
40967;SDS011;57377;45.130;6.038;2022-12-18T04:44:32;29.48;;;10.35;;
40967;SDS011;57377;45.130;6.038;2022-12-18T04:46:57;14.45;;;4.93;;
40967;SDS011;57377;45.130;6.038;2022-12-18T04:49:23;8.68;;;3.03;;
40967;SDS011;57377;45.130;6.038;2022-12-18T04:51:50;9.48;;;2.72;;
40967;SDS011;57377;45.130;6.038;2022-12-18T04:54:18;5.78;;;2.30;;
40967;SDS011;57377;45.130;6.038;2022-12-18T04:56:44;2.75;;;1.65;;
40967;SDS011;57377;45.130;6.038;2022-12-18T04:59:09;2.50;;;1.35;;
40967;SDS011;57377;45.130;6.038;2022-12-18T05:01:34;4.55;;;1.15;;
40967;SDS011;57377;45.130;6.038;2022-12-18T05:04:00;2.15;;;1.15;;
40967;SDS011;57377;45.130;6.038;2022-12-18T05:06:26;3.10;;;1.60;;
40967;SDS011;57377;45.130;6.038;2022-12-18T05:08:52;4.93;;;1.23;;
40967;SDS011;57377;45.130;6.038;2022-12-18T05:11:17;2.58;;;1.17;;
40967;SDS011;57377;45.130;6.038;2022-12-18T05:13:43;1.50;;;0.90;;
40967;SDS011;57377;45.130;6.038;2022-12-18T05:16:12;2.03;;;1.20;;
40967;SDS011;57377;45.130;6.038;2022-12-18T05:18:39;3.70;;;1.50;;
40967;SDS011;57377;45.130;6.038;2022-12-18T05:21:05;3.65;;;1.40;;
40967;SDS011;57377;45.130;6.038;2022-12-18T05:23:33;4.50;;;2.10;;
40967;SDS011;57377;45.130;6.038;2022-12-18T05:26:00;18.10;;;6.57;;
40967;SDS011;57377;45.130;6.038;2022-12-18T05:28:30;17.10;;;6.30;;
40967;SDS011;57377;45.130;6.038;2022-12-18T05:31:00;17.05;;;5.30;;
40967;SDS011;57377;45.130;6.038;2022-12-18T05:33:31;13.15;;;5.05;;
40967;SDS011;57377;45.130;6.038;2022-12-18T05:36:03;12.23;;;4.43;;
40967;SDS011;57377;45.130;6.038;2022-12-18T05:38:33;10.30;;;4.18;;
40967;SDS011;57377;45.130;6.038;2022-12-18T05:41:02;15.07;;;5.97;;
40967;SDS011;57377;45.130;6.038;2022-12-18T05:43:29;51.95;;;17.38;;
40967;SDS011;57377;45.130;6.038;2022-12-18T05:45:56;54.70;;;18.02;;
40967;SDS011;57377;45.130;6.038;2022-12-18T05:48:29;36.75;;;12.23;;
40967;SDS011;57377;45.130;6.038;2022-12-18T05:50:55;12.68;;;3.97;;
40967;SDS011;57377;45.130;6.038;2022-12-18T05:53:20;6.40;;;2.70;;
40967;SDS011;57377;45.130;6.038;2022-12-18T05:55:46;3.40;;;2.20;;
40967;SDS011;57377;45.130;6.038;2022-12-18T05:58:12;6.88;;;3.20;;
40967;SDS011;57377;45.130;6.038;2022-12-18T06:00:40;5.93;;;2.83;;
40967;SDS011;57377;45.130;6.038;2022-12-18T06:03:07;7.25;;;3.28;;
40967;SDS011;57377;45.130;6.038;2022-12-18T06:08:03;45.88;;;18.08;;
40967;SDS011;57377;45.130;6.038;2022-12-18T06:10:29;54.05;;;21.45;;
40967;SDS011;57377;45.130;6.038;2022-12-18T06:13:01;21.23;;;9.07;;
40967;SDS011;57377;45.130;6.038;2022-12-18T06:15:30;9.50;;;4.82;;
40967;SDS011;57377;45.130;6.038;2022-12-18T06:18:05;7.55;;;3.17;;
40967;SDS011;57377;45.130;6.038;2022-12-18T06:20:34;4.45;;;2.30;;
40967;SDS011;57377;45.130;6.038;2022-12-18T06:23:06;3.28;;;1.67;;
40967;SDS011;57377;45.130;6.038;2022-12-18T06:25:33;3.50;;;1.35;;
40967;SDS011;57377;45.130;6.038;2022-12-18T06:28:24;3.30;;;1.50;;
40967;SDS011;57377;45.130;6.038;2022-12-18T06:33:36;1.52;;;1.00;;
40967;SDS011;57377;45.130;6.038;2022-12-18T06:36:17;1.73;;;0.98;;
40967;SDS011;57377;45.130;6.038;2022-12-18T06:38:51;5.47;;;1.55;;
40967;SDS011;57377;45.130;6.038;2022-12-18T06:41:39;1.65;;;1.00;;
40967;SDS011;57377;45.130;6.038;2022-12-18T06:44:08;2.97;;;1.50;;
40967;SDS011;57377;45.130;6.038;2022-12-18T06:50:42;2.42;;;1.35;;
40967;SDS011;57377;45.130;6.038;2022-12-18T06:56:56;5.45;;;2.38;;
40967;SDS011;57377;45.130;6.038;2022-12-18T06:59:46;5.80;;;2.90;;
40967;SDS011;57377;45.130;6.038;2022-12-18T07:02:14;4.47;;;2.60;;
40967;SDS011;57377;45.130;6.038;2022-12-18T07:04:44;2.40;;;1.77;;
40967;SDS011;57377;45.130;6.038;2022-12-18T07:07:12;4.22;;;2.05;;
40967;SDS011;57377;45.130;6.038;2022-12-18T07:10:01;13.70;;;5.70;;
40967;SDS011;57377;45.130;6.038;2022-12-18T07:12:28;43.88;;;16.08;;
40967;SDS011;57377;45.130;6.038;2022-12-18T07:14:59;19.00;;;6.55;;
40967;SDS011;57377;45.130;6.038;2022-12-18T07:17:28;8.32;;;3.42;;
40967;SDS011;57377;45.130;6.038;2022-12-18T07:20:05;26.38;;;10.65;;
40967;SDS011;57377;45.130;6.038;2022-12-18T07:24:57;16.83;;;6.88;;
40967;SDS011;57377;45.130;6.038;2022-12-18T07:27:24;12.23;;;4.73;;
40967;SDS011;57377;45.130;6.038;2022-12-18T07:29:59;6.88;;;3.83;;
40967;SDS011;57377;45.130;6.038;2022-12-18T07:33:35;3.80;;;2.20;;
40967;SDS011;57377;45.130;6.038;2022-12-18T07:39:54;18.88;;;7.05;;
40967;SDS011;57377;45.130;6.038;2022-12-18T07:43:18;18.23;;;7.03;;
40967;SDS011;57377;45.130;6.038;2022-12-18T07:49:09;11.13;;;5.75;;
40967;SDS011;57377;45.130;6.038;2022-12-18T07:51:35;5.20;;;3.00;;
40967;SDS011;57377;45.130;6.038;2022-12-18T07:54:02;7.80;;;4.40;;
40967;SDS011;57377;45.130;6.038;2022-12-18T07:56:32;18.42;;;8.60;;
40967;SDS011;57377;45.130;6.038;2022-12-18T07:58:58;27.45;;;9.82;;
40967;SDS011;57377;45.130;6.038;2022-12-18T08:01:35;16.73;;;7.05;;
40967;SDS011;57377;45.130;6.038;2022-12-18T08:04:34;6.43;;;3.85;;
40967;SDS011;57377;45.130;6.038;2022-12-18T08:07:14;7.60;;;3.33;;
40967;SDS011;57377;45.130;6.038;2022-12-18T08:10:05;4.28;;;2.50;;
40967;SDS011;57377;45.130;6.038;2022-12-18T08:13:06;7.18;;;3.00;;
40967;SDS011;57377;45.130;6.038;2022-12-18T08:16:11;10.57;;;3.00;;
40967;SDS011;57377;45.130;6.038;2022-12-18T08:34:40;11.93;;;4.90;;
40967;SDS011;57377;45.130;6.038;2022-12-18T08:37:36;8.45;;;3.10;;
40967;SDS011;57377;45.130;6.038;2022-12-18T08:40:30;4.53;;;2.58;;
40967;SDS011;57377;45.130;6.038;2022-12-18T08:43:41;6.72;;;3.13;;
40967;SDS011;57377;45.130;6.038;2022-12-18T08:46:43;11.68;;;7.13;;
40967;SDS011;57377;45.130;6.038;2022-12-18T10:23:37;13.40;;;5.75;;
40967;SDS011;57377;45.130;6.038;2022-12-18T10:26:32;11.38;;;5.18;;
40967;SDS011;57377;45.130;6.038;2022-12-18T10:32:42;2.53;;;1.50;;
40967;SDS011;57377;45.130;6.038;2022-12-18T10:35:46;5.47;;;2.22;;
40967;SDS011;57377;45.130;6.038;2022-12-18T10:39:22;2.80;;;1.33;;
40967;SDS011;57377;45.130;6.038;2022-12-18T10:46:16;1.88;;;1.15;;
40967;SDS011;57377;45.130;6.038;2022-12-18T10:51:29;2.97;;;1.67;;
40967;SDS011;57377;45.130;6.038;2022-12-18T10:54:04;3.28;;;1.98;;
40967;SDS011;57377;45.130;6.038;2022-12-18T10:56:35;15.05;;;4.90;;
40967;SDS011;57377;45.130;6.038;2022-12-18T10:59:04;54.08;;;14.23;;
40967;SDS011;57377;45.130;6.038;2022-12-18T11:04:28;12.70;;;4.32;;
40967;SDS011;57377;45.130;6.038;2022-12-18T11:09:22;2.70;;;1.67;;
40967;SDS011;57377;45.130;6.038;2022-12-18T11:11:50;14.63;;;7.03;;
40967;SDS011;57377;45.130;6.038;2022-12-18T11:14:20;10.50;;;5.47;;
40967;SDS011;57377;45.130;6.038;2022-12-18T11:16:52;7.07;;;3.78;;
40967;SDS011;57377;45.130;6.038;2022-12-18T11:21:44;5.43;;;3.35;;
40967;SDS011;57377;45.130;6.038;2022-12-18T11:24:53;6.38;;;3.03;;
40967;SDS011;57377;45.130;6.038;2022-12-18T11:27:00;3.85;;;2.30;;
40967;SDS011;57377;45.130;6.038;2022-12-18T11:29:38;4.40;;;2.92;;
40967;SDS011;57377;45.130;6.038;2022-12-18T11:32:47;2.95;;;2.10;;
40967;SDS011;57377;45.130;6.038;2022-12-18T11:37:41;5.00;;;2.83;;
40967;SDS011;57377;45.130;6.038;2022-12-18T11:40:14;5.47;;;3.40;;
40967;SDS011;57377;45.130;6.038;2022-12-18T11:48:22;3.63;;;1.60;;
40967;SDS011;57377;45.130;6.038;2022-12-18T11:50:53;2.38;;;1.65;;
40967;SDS011;57377;45.130;6.038;2022-12-18T11:53:20;2.30;;;1.13;;
40967;SDS011;57377;45.130;6.038;2022-12-18T11:55:56;1.40;;;0.85;;
40967;SDS011;57377;45.130;6.038;2022-12-18T12:15:13;5.90;;;2.90;;
40967;SDS011;57377;45.130;6.038;2022-12-18T12:18:03;5.88;;;2.55;;
40967;SDS011;57377;45.130;6.038;2022-12-18T12:32:05;2.85;;;2.00;;
40967;SDS011;57377;45.130;6.038;2022-12-18T12:35:16;6.07;;;3.20;;
40967;SDS011;57377;45.130;6.038;2022-12-18T12:40:26;2.33;;;1.45;;
40967;SDS011;57377;45.130;6.038;2022-12-18T12:42:55;3.13;;;2.00;;
40967;SDS011;57377;45.130;6.038;2022-12-18T12:45:40;3.42;;;1.90;;
40967;SDS011;57377;45.130;6.038;2022-12-18T12:48:16;3.72;;;1.83;;
40967;SDS011;57377;45.130;6.038;2022-12-18T12:50:45;4.40;;;2.40;;
40967;SDS011;57377;45.130;6.038;2022-12-18T12:53:15;3.42;;;2.00;;
40967;SDS011;57377;45.130;6.038;2022-12-18T12:55:47;3.25;;;1.50;;
40967;SDS011;57377;45.130;6.038;2022-12-18T12:58:15;2.33;;;1.42;;
40967;SDS011;57377;45.130;6.038;2022-12-18T13:00:54;2.22;;;1.27;;
40967;SDS011;57377;45.130;6.038;2022-12-18T13:06:23;2.72;;;1.30;;
40967;SDS011;57377;45.130;6.038;2022-12-18T13:08:58;3.00;;;1.10;;
40967;SDS011;57377;45.130;6.038;2022-12-18T13:11:32;2.20;;;1.08;;
40967;SDS011;57377;45.130;6.038;2022-12-18T13:14:22;1.92;;;1.20;;
40967;SDS011;57377;45.130;6.038;2022-12-18T13:17:09;6.68;;;1.60;;
40967;SDS011;57377;45.130;6.038;2022-12-18T13:19:43;2.30;;;1.30;;
40967;SDS011;57377;45.130;6.038;2022-12-18T13:22:22;2.85;;;1.42;;
40967;SDS011;57377;45.130;6.038;2022-12-18T13:24:50;2.35;;;1.52;;
40967;SDS011;57377;45.130;6.038;2022-12-18T13:28:01;2.60;;;1.40;;
40967;SDS011;57377;45.130;6.038;2022-12-18T13:36:02;2.67;;;1.45;;
40967;SDS011;57377;45.130;6.038;2022-12-18T13:38:38;4.57;;;2.00;;
40967;SDS011;57377;45.130;6.038;2022-12-18T13:43:33;3.72;;;1.60;;
40967;SDS011;57377;45.130;6.038;2022-12-18T13:46:01;4.53;;;1.95;;
40967;SDS011;57377;45.130;6.038;2022-12-18T13:48:33;4.78;;;2.17;;
40967;SDS011;57377;45.130;6.038;2022-12-18T13:51:06;4.82;;;2.35;;
40967;SDS011;57377;45.130;6.038;2022-12-18T13:53:35;2.53;;;1.90;;
40967;SDS011;57377;45.130;6.038;2022-12-18T13:56:15;6.60;;;2.50;;
40967;SDS011;57377;45.130;6.038;2022-12-18T13:59:11;3.90;;;2.22;;
40967;SDS011;57377;45.130;6.038;2022-12-18T14:01:46;3.72;;;2.00;;
40967;SDS011;57377;45.130;6.038;2022-12-18T14:04:19;3.95;;;2.40;;
40967;SDS011;57377;45.130;6.038;2022-12-18T14:06:47;2.72;;;1.40;;
40967;SDS011;57377;45.130;6.038;2022-12-18T14:09:24;3.40;;;1.83;;
40967;SDS011;57377;45.130;6.038;2022-12-18T14:11:52;2.03;;;1.42;;
40967;SDS011;57377;45.130;6.038;2022-12-18T14:14:40;4.13;;;1.77;;
40967;SDS011;57377;45.130;6.038;2022-12-18T14:17:09;4.13;;;1.92;;
40967;SDS011;57377;45.130;6.038;2022-12-18T14:19:36;5.45;;;2.72;;
40967;SDS011;57377;45.130;6.038;2022-12-18T14:22:01;2.22;;;1.40;;
40967;SDS011;57377;45.130;6.038;2022-12-18T14:24:26;3.25;;;1.83;;
40967;SDS011;57377;45.130;6.038;2022-12-18T14:26:53;4.15;;;1.65;;
40967;SDS011;57377;45.130;6.038;2022-12-18T14:29:20;6.72;;;2.17;;
40967;SDS011;57377;45.130;6.038;2022-12-18T14:32:03;5.22;;;2.30;;
40967;SDS011;57377;45.130;6.038;2022-12-18T14:34:36;3.30;;;1.88;;
40967;SDS011;57377;45.130;6.038;2022-12-18T14:37:01;5.82;;;1.92;;
40967;SDS011;57377;45.130;6.038;2022-12-18T14:39:27;2.20;;;1.48;;
40967;SDS011;57377;45.130;6.038;2022-12-18T14:41:52;4.20;;;2.13;;
40967;SDS011;57377;45.130;6.038;2022-12-18T14:44:18;5.43;;;2.45;;
40967;SDS011;57377;45.130;6.038;2022-12-18T14:46:44;7.53;;;3.15;;
40967;SDS011;57377;45.130;6.038;2022-12-18T14:49:24;8.57;;;2.90;;
40967;SDS011;57377;45.130;6.038;2022-12-18T14:52:00;55.80;;;24.30;;
40967;SDS011;57377;45.130;6.038;2022-12-18T14:54:28;54.25;;;23.48;;
40967;SDS011;57377;45.130;6.038;2022-12-18T14:59:23;87.78;;;37.30;;
40967;SDS011;57377;45.130;6.038;2022-12-18T15:04:35;7.22;;;3.65;;
40967;SDS011;57377;45.130;6.038;2022-12-18T15:09:35;5.93;;;3.00;;
40967;SDS011;57377;45.130;6.038;2022-12-18T15:12:02;3.13;;;1.70;;
40967;SDS011;57377;45.130;6.038;2022-12-18T15:16:57;4.82;;;1.40;;
40967;SDS011;57377;45.130;6.038;2022-12-18T15:24:53;7.20;;;2.05;;
40967;SDS011;57377;45.130;6.038;2022-12-18T15:30:34;3.85;;;1.60;;
40967;SDS011;57377;45.130;6.038;2022-12-18T15:32:43;2.53;;;1.30;;
40967;SDS011;57377;45.130;6.038;2022-12-18T15:35:23;4.47;;;1.70;;
40967;SDS011;57377;45.130;6.038;2022-12-18T15:37:49;6.88;;;1.92;;
40967;SDS011;57377;45.130;6.038;2022-12-18T15:40:17;3.63;;;1.70;;
40967;SDS011;57377;45.130;6.038;2022-12-18T15:42:44;3.03;;;1.42;;
40967;SDS011;57377;45.130;6.038;2022-12-18T15:45:28;3.10;;;1.70;;
40967;SDS011;57377;45.130;6.038;2022-12-18T15:47:54;3.15;;;1.42;;
40967;SDS011;57377;45.130;6.038;2022-12-18T15:50:19;4.15;;;1.23;;
40967;SDS011;57377;45.130;6.038;2022-12-18T15:52:45;3.33;;;1.75;;
40967;SDS011;57377;45.130;6.038;2022-12-18T15:55:16;1.70;;;1.10;;
40967;SDS011;57377;45.130;6.038;2022-12-18T15:58:03;3.55;;;1.10;;
40967;SDS011;57377;45.130;6.038;2022-12-18T16:00:29;2.72;;;1.30;;
40967;SDS011;57377;45.130;6.038;2022-12-18T16:02:54;1.52;;;1.00;;
40967;SDS011;57377;45.130;6.038;2022-12-18T16:05:20;10.85;;;4.90;;
40967;SDS011;57377;45.130;6.038;2022-12-18T16:07:46;12.10;;;5.50;;
40967;SDS011;57377;45.130;6.038;2022-12-18T16:10:12;5.38;;;2.50;;
40967;SDS011;57377;45.130;6.038;2022-12-18T16:12:37;2.75;;;1.67;;
40967;SDS011;57377;45.130;6.038;2022-12-18T16:15:03;2.83;;;1.35;;
40967;SDS011;57377;45.130;6.038;2022-12-18T16:17:30;6.90;;;2.13;;
40967;SDS011;57377;45.130;6.038;2022-12-18T16:19:56;3.10;;;1.45;;
40967;SDS011;57377;45.130;6.038;2022-12-18T16:22:23;6.00;;;2.38;;
40967;SDS011;57377;45.130;6.038;2022-12-18T16:24:50;8.85;;;4.00;;
40967;SDS011;57377;45.130;6.038;2022-12-18T16:27:16;4.85;;;2.40;;
40967;SDS011;57377;45.130;6.038;2022-12-18T16:29:43;1.88;;;1.23;;
40967;SDS011;57377;45.130;6.038;2022-12-18T16:32:08;2.78;;;1.40;;
40967;SDS011;57377;45.130;6.038;2022-12-18T16:34:39;3.28;;;1.40;;
40967;SDS011;57377;45.130;6.038;2022-12-18T16:37:05;3.63;;;1.63;;
40967;SDS011;57377;45.130;6.038;2022-12-18T16:39:36;3.13;;;1.52;;
40967;SDS011;57377;45.130;6.038;2022-12-18T16:42:23;8.20;;;2.42;;
40967;SDS011;57377;45.130;6.038;2022-12-18T16:44:49;10.15;;;4.50;;
40967;SDS011;57377;45.130;6.038;2022-12-18T16:47:15;4.13;;;2.15;;
40967;SDS011;57377;45.130;6.038;2022-12-18T16:49:41;3.67;;;2.13;;
40967;SDS011;57377;45.130;6.038;2022-12-18T16:52:07;3.42;;;1.35;;
40967;SDS011;57377;45.130;6.038;2022-12-18T16:54:32;14.00;;;4.35;;
40967;SDS011;57377;45.130;6.038;2022-12-18T16:56:59;3.70;;;2.00;;
40967;SDS011;57377;45.130;6.038;2022-12-18T16:59:25;2.97;;;1.50;;
40967;SDS011;57377;45.130;6.038;2022-12-18T17:01:51;3.35;;;1.90;;
40967;SDS011;57377;45.130;6.038;2022-12-18T17:04:16;15.35;;;5.75;;
40967;SDS011;57377;45.130;6.038;2022-12-18T17:06:43;12.45;;;4.25;;
40967;SDS011;57377;45.130;6.038;2022-12-18T17:09:11;6.93;;;3.35;;
40967;SDS011;57377;45.130;6.038;2022-12-18T17:11:41;31.15;;;10.75;;
40967;SDS011;57377;45.130;6.038;2022-12-18T17:14:08;39.38;;;12.80;;
40967;SDS011;57377;45.130;6.038;2022-12-18T17:16:36;7.30;;;3.30;;
40967;SDS011;57377;45.130;6.038;2022-12-18T17:19:01;10.98;;;4.28;;
40967;SDS011;57377;45.130;6.038;2022-12-18T17:21:27;28.08;;;11.00;;
40967;SDS011;57377;45.130;6.038;2022-12-18T17:23:52;8.38;;;2.83;;
40967;SDS011;57377;45.130;6.038;2022-12-18T17:26:18;6.55;;;2.70;;
40967;SDS011;57377;45.130;6.038;2022-12-18T17:28:43;10.27;;;5.13;;
40967;SDS011;57377;45.130;6.038;2022-12-18T17:31:10;15.35;;;5.78;;
40967;SDS011;57377;45.130;6.038;2022-12-18T17:33:43;12.30;;;4.97;;
40967;SDS011;57377;45.130;6.038;2022-12-18T17:36:08;12.25;;;4.57;;
40967;SDS011;57377;45.130;6.038;2022-12-18T17:38:35;2.85;;;1.80;;
40967;SDS011;57377;45.130;6.038;2022-12-18T17:41:01;7.30;;;2.20;;
40967;SDS011;57377;45.130;6.038;2022-12-18T17:43:28;101.40;;;30.98;;
40967;SDS011;57377;45.130;6.038;2022-12-18T17:45:54;71.25;;;20.02;;
40967;SDS011;57377;45.130;6.038;2022-12-18T17:48:19;30.20;;;10.88;;
40967;SDS011;57377;45.130;6.038;2022-12-18T17:50:44;33.50;;;11.00;;
40967;SDS011;57377;45.130;6.038;2022-12-18T17:53:10;14.30;;;4.68;;
40967;SDS011;57377;45.130;6.038;2022-12-18T17:55:35;6.40;;;3.20;;
40967;SDS011;57377;45.130;6.038;2022-12-18T17:58:01;13.52;;;4.30;;
40967;SDS011;57377;45.130;6.038;2022-12-18T18:00:26;8.30;;;3.33;;
40967;SDS011;57377;45.130;6.038;2022-12-18T18:02:51;9.40;;;2.72;;
40967;SDS011;57377;45.130;6.038;2022-12-18T18:05:17;6.30;;;3.03;;
40967;SDS011;57377;45.130;6.038;2022-12-18T18:07:42;8.32;;;4.20;;
40967;SDS011;57377;45.130;6.038;2022-12-18T18:10:08;8.20;;;4.70;;
40967;SDS011;57377;45.130;6.038;2022-12-18T18:12:33;4.28;;;2.40;;
40967;SDS011;57377;45.130;6.038;2022-12-18T18:15:19;13.18;;;5.35;;
40967;SDS011;57377;45.130;6.038;2022-12-18T18:17:45;15.50;;;4.53;;
40967;SDS011;57377;45.130;6.038;2022-12-18T18:20:10;9.07;;;4.07;;
40967;SDS011;57377;45.130;6.038;2022-12-18T18:22:36;10.20;;;3.28;;
40967;SDS011;57377;45.130;6.038;2022-12-18T18:25:01;4.65;;;2.28;;
40967;SDS011;57377;45.130;6.038;2022-12-18T18:27:27;10.68;;;4.35;;
40967;SDS011;57377;45.130;6.038;2022-12-18T18:29:54;13.25;;;5.22;;
40967;SDS011;57377;45.130;6.038;2022-12-18T18:32:20;11.68;;;4.85;;
40967;SDS011;57377;45.130;6.038;2022-12-18T18:34:45;11.38;;;5.60;;
40967;SDS011;57377;45.130;6.038;2022-12-18T18:37:10;10.45;;;4.63;;
40967;SDS011;57377;45.130;6.038;2022-12-18T18:39:36;16.85;;;5.80;;
40967;SDS011;57377;45.130;6.038;2022-12-18T18:42:01;9.57;;;3.05;;
40967;SDS011;57377;45.130;6.038;2022-12-18T18:44:27;3.38;;;1.85;;
40967;SDS011;57377;45.130;6.038;2022-12-18T18:46:53;3.88;;;1.98;;
40967;SDS011;57377;45.130;6.038;2022-12-18T18:49:20;8.27;;;3.17;;
40967;SDS011;57377;45.130;6.038;2022-12-18T18:51:45;8.07;;;3.40;;
40967;SDS011;57377;45.130;6.038;2022-12-18T18:54:10;5.72;;;2.25;;
40967;SDS011;57377;45.130;6.038;2022-12-18T18:56:36;4.95;;;2.45;;
40967;SDS011;57377;45.130;6.038;2022-12-18T18:59:02;3.42;;;1.77;;
40967;SDS011;57377;45.130;6.038;2022-12-18T19:01:27;3.60;;;2.00;;
40967;SDS011;57377;45.130;6.038;2022-12-18T19:03:53;5.10;;;2.47;;
40967;SDS011;57377;45.130;6.038;2022-12-18T19:06:19;5.55;;;2.88;;
40967;SDS011;57377;45.130;6.038;2022-12-18T19:08:51;5.15;;;2.20;;
40967;SDS011;57377;45.130;6.038;2022-12-18T19:11:17;8.65;;;4.50;;
40967;SDS011;57377;45.130;6.038;2022-12-18T19:14:03;7.25;;;4.28;;
40967;SDS011;57377;45.130;6.038;2022-12-18T19:16:30;14.02;;;6.22;;
40967;SDS011;57377;45.130;6.038;2022-12-18T19:18:57;4.90;;;2.58;;